Time;durP1;ratioP1;P1;durP2;ratioP2;P2;SDS_P1;SDS_P2;PMS_P1;PMS_P2;Temp;Humidity;BMP_temperature;BMP_pressure;BME280_temperature;BME280_humidity;BME280_pressure;Samples;Min_cycle;Max_cycle;Signal;HPM_P1;HPM_P2
2021/03/25 00:02:08;;;;;;;43.58;28.17;;;9.30;90.70;;;;;;5067281;28;20012;-38
2021/03/25 00:04:34;;;;;;;49.13;30.10;;;9.40;90.70;;;;;;5067342;28;20479;-38
2021/03/25 00:07:01;;;;;;;46.38;29.58;;;9.30;90.70;;;;;;5066574;28;20211;-37
2021/03/25 00:09:38;;;;;;;46.33;29.67;;;9.40;90.70;;;;;;5067397;28;20039;-39
2021/03/25 00:12:05;;;;;;;47.83;30.20;;;9.40;90.80;;;;;;5066535;28;20031;-37
2021/03/25 00:14:34;;;;;;;45.17;29.48;;;9.40;90.80;;;;;;5047063;28;20786;-37
2021/03/25 00:17:05;;;;;;;45.60;28.85;;;9.40;90.80;;;;;;5061088;28;20097;-35
2021/03/25 00:19:31;;;;;;;43.72;28.98;;;9.40;90.80;;;;;;5066974;28;20040;-38
2021/03/25 00:21:56;;;;;;;46.67;29.40;;;9.40;90.90;;;;;;5066873;28;20020;-38
2021/03/25 00:24:22;;;;;;;47.88;30.20;;;9.40;90.90;;;;;;5066561;28;20028;-38
2021/03/25 00:26:48;;;;;;;41.75;28.70;;;9.30;90.90;;;;;;5065094;28;20029;-36
2021/03/25 00:29:15;;;;;;;45.30;28.63;;;9.20;91.00;;;;;;5067296;28;20028;-38
2021/03/25 00:31:42;;;;;;;44.75;29.50;;;9.20;91.10;;;;;;5066774;28;20041;-38
2021/03/25 00:34:09;;;;;;;49.42;31.20;;;9.20;91.10;;;;;;5066334;28;20024;-37
2021/03/25 00:36:34;;;;;;;43.15;28.88;;;9.10;91.10;;;;;;5066830;28;20012;-35
2021/03/25 00:39:00;;;;;;;47.47;31.33;;;9.10;91.20;;;;;;5066583;28;20073;-34
2021/03/25 00:41:27;;;;;;;46.67;29.33;;;9.00;91.20;;;;;;5065912;28;20032;-36
2021/03/25 00:43:53;;;;;;;47.22;30.27;;;9.00;91.30;;;;;;5066678;28;20016;-38
2021/03/25 00:46:19;;;;;;;49.22;29.88;;;9.00;91.30;;;;;;5066905;28;20023;-38
2021/03/25 00:48:45;;;;;;;43.95;30.08;;;9.00;91.40;;;;;;5066267;28;20071;-37
2021/03/25 00:51:10;;;;;;;44.67;28.55;;;9.00;91.40;;;;;;5066515;28;20126;-37
2021/03/25 00:53:37;;;;;;;44.35;28.58;;;8.90;91.40;;;;;;5066175;28;20522;-39
2021/03/25 00:56:04;;;;;;;44.20;28.55;;;8.80;91.50;;;;;;5066020;28;20025;-39
2021/03/25 00:58:30;;;;;;;44.55;29.77;;;8.80;91.50;;;;;;5066041;28;20067;-37
2021/03/25 01:00:59;;;;;;;48.30;30.67;;;8.80;91.50;;;;;;5065921;28;20106;-36
2021/03/25 01:03:26;;;;;;;50.08;29.10;;;8.80;91.60;;;;;;5065298;28;20036;-38
2021/03/25 01:05:53;;;;;;;46.40;31.50;;;8.80;91.60;;;;;;5066083;28;20020;-35
2021/03/25 01:08:19;;;;;;;51.53;32.33;;;8.80;91.60;;;;;;5065574;28;20043;-38
2021/03/25 01:10:59;;;;;;;49.80;32.30;;;8.80;91.90;;;;;;5066007;28;20480;-38
2021/03/25 01:13:29;;;;;;;48.75;30.90;;;8.90;91.70;;;;;;5065473;28;20507;-38
2021/03/25 01:15:55;;;;;;;51.53;31.25;;;8.90;91.70;;;;;;5065504;28;20039;-38
2021/03/25 01:18:21;;;;;;;47.33;30.92;;;8.90;91.70;;;;;;5066104;28;20075;-39
2021/03/25 01:20:47;;;;;;;45.03;30.48;;;8.90;91.70;;;;;;5065046;28;20024;-37
2021/03/25 01:23:13;;;;;;;49.65;30.98;;;8.80;91.70;;;;;;5065879;28;20524;-39
2021/03/25 01:25:40;;;;;;;49.17;31.92;;;8.80;91.80;;;;;;5065736;28;20104;-34
2021/03/25 01:28:08;;;;;;;50.05;30.80;;;8.80;91.80;;;;;;5064958;28;20558;-38
2021/03/25 01:30:35;;;;;;;47.47;30.30;;;8.80;91.80;;;;;;5065470;28;20040;-35
2021/03/25 01:33:02;;;;;;;46.20;30.15;;;8.80;91.90;;;;;;5065404;28;20041;-37
2021/03/25 01:35:28;;;;;;;50.53;31.20;;;8.80;91.80;;;;;;5065372;28;20021;-37
2021/03/25 01:37:54;;;;;;;47.50;30.35;;;8.80;91.90;;;;;;5065508;28;20029;-37
2021/03/25 01:40:27;;;;;;;48.47;30.20;;;8.80;91.90;;;;;;5065112;28;20032;-39
2021/03/25 01:43:14;;;;;;;45.45;30.60;;;8.80;91.90;;;;;;5065308;28;20518;-33
2021/03/25 01:46:06;;;;;;;49.28;30.85;;;8.80;91.90;;;;;;5064920;28;20021;-36
2021/03/25 01:48:35;;;;;;;48.13;30.90;;;8.80;91.90;;;;;;5065506;28;20028;-33
2021/03/25 01:51:19;;;;;;;51.35;32.22;;;8.80;91.90;;;;;;5064764;28;20440;-37
2021/03/25 01:54:07;;;;;;;46.92;30.85;;;8.80;91.90;;;;;;5064936;28;20404;-36
2021/03/25 01:56:56;;;;;;;46.90;30.17;;;8.80;92.00;;;;;;5065675;28;20033;-35
2021/03/25 01:59:31;;;;;;;51.30;29.85;;;8.80;91.90;;;;;;5065065;28;20512;-35
2021/03/25 02:02:17;;;;;;;45.92;30.00;;;8.90;91.90;;;;;;5065179;28;20086;-34
2021/03/25 02:05:10;;;;;;;49.63;30.83;;;8.90;91.90;;;;;;5064422;28;20036;-39
2021/03/25 02:07:48;;;;;;;51.10;32.13;;;8.90;91.90;;;;;;5065222;28;20109;-36
2021/03/25 02:10:38;;;;;;;51.47;32.67;;;8.90;91.90;;;;;;5065017;28;20025;-37
2021/03/25 02:13:23;;;;;;;49.92;30.88;;;8.80;91.90;;;;;;5064549;28;20157;-37
2021/03/25 02:15:58;;;;;;;50.15;31.85;;;8.80;91.90;;;;;;5064160;28;20107;-36
2021/03/25 02:19:01;;;;;;;49.28;32.78;;;8.80;91.90;;;;;;5064672;28;20032;-39
2021/03/25 02:22:08;;;;;;;49.60;32.47;;;8.80;91.90;;;;;;5064854;28;20555;-39
2021/03/25 02:24:58;;;;;;;51.88;33.08;;;8.90;92.00;;;;;;5064580;28;20057;-38
2021/03/25 02:27:51;;;;;;;53.05;32.63;;;8.80;92.00;;;;;;5064201;28;20033;-36
2021/03/25 02:30:23;;;;;;;49.67;31.92;;;8.80;92.00;;;;;;5065049;28;20024;-35
2021/03/25 02:32:55;;;;;;;52.38;32.25;;;8.80;92.00;;;;;;5053267;28;20119;-39
2021/03/25 02:35:35;;;;;;;51.95;32.58;;;8.90;92.00;;;;;;5064564;28;20042;-34
2021/03/25 02:38:06;;;;;;;46.10;31.17;;;8.90;92.00;;;;;;5053874;28;20054;-34
2021/03/25 02:40:43;;;;;;;48.67;31.77;;;8.90;92.00;;;;;;5064124;28;20429;-37
2021/03/25 02:43:28;;;;;;;53.20;31.85;;;8.90;92.00;;;;;;5064673;28;20030;-36
2021/03/25 02:46:01;;;;;;;53.15;33.28;;;8.90;91.90;;;;;;5064690;28;20675;-36
2021/03/25 02:48:39;;;;;;;49.38;31.58;;;8.90;91.90;;;;;;5053864;28;20086;-36
2021/03/25 02:51:17;;;;;;;45.70;29.45;;;8.90;91.90;;;;;;5063819;28;20456;-38
2021/03/25 02:53:45;;;;;;;53.85;30.40;;;8.90;92.00;;;;;;5054296;28;20531;-37
2021/03/25 02:56:37;;;;;;;50.65;31.92;;;8.90;91.90;;;;;;5064650;28;20028;-36
2021/03/25 02:59:14;;;;;;;52.78;32.03;;;8.90;92.00;;;;;;5056336;28;20052;-36
2021/03/25 03:01:43;;;;;;;51.05;31.63;;;9.00;91.90;;;;;;5063790;28;20032;-38
2021/03/25 03:04:17;;;;;;;52.60;33.80;;;9.00;91.90;;;;;;5064029;28;20025;-37
2021/03/25 03:06:50;;;;;;;51.42;33.20;;;9.00;91.90;;;;;;5064318;28;20021;-38
2021/03/25 03:09:21;;;;;;;52.78;33.80;;;9.00;91.90;;;;;;5064018;28;20020;-39
2021/03/25 03:11:49;;;;;;;52.92;33.85;;;9.00;91.90;;;;;;5064057;28;20047;-34
2021/03/25 03:14:47;;;;;;;48.13;31.70;;;9.10;91.90;;;;;;5053617;28;20650;-37
2021/03/25 03:17:33;;;;;;;49.78;32.42;;;9.10;91.90;;;;;;5064197;28;20107;-39
2021/03/25 03:20:21;;;;;;;52.15;32.63;;;9.10;91.90;;;;;;5064356;28;20029;-39
2021/03/25 03:22:47;;;;;;;52.90;33.88;;;9.10;92.00;;;;;;5063441;28;20139;-38
2021/03/25 03:25:17;;;;;;;51.20;32.30;;;9.10;92.00;;;;;;5064673;28;20029;-38
2021/03/25 03:27:53;;;;;;;51.28;32.53;;;9.10;92.00;;;;;;5067949;28;20538;-35
2021/03/25 03:30:24;;;;;;;51.10;33.10;;;9.10;92.00;;;;;;5067847;28;20204;-38
2021/03/25 03:32:56;;;;;;;52.55;33.55;;;9.10;92.00;;;;;;5068138;28;20754;-38
2021/03/25 03:35:32;;;;;;;51.08;33.97;;;9.10;92.00;;;;;;5068343;28;20047;-37
2021/03/25 03:38:06;;;;;;;51.08;34.30;;;9.10;92.00;;;;;;5067177;28;20028;-36
2021/03/25 03:40:39;;;;;;;52.25;33.60;;;9.10;92.00;;;;;;5067952;28;20510;-34
2021/03/25 03:43:08;;;;;;;55.70;34.25;;;9.10;92.00;;;;;;5066998;28;20027;-37
2021/03/25 03:45:38;;;;;;;54.65;34.55;;;9.10;92.00;;;;;;5067689;28;20111;-35
2021/03/25 03:48:08;;;;;;;53.78;34.30;;;9.10;92.00;;;;;;5067516;28;20649;-37
2021/03/25 03:50:42;;;;;;;50.30;34.80;;;9.20;92.00;;;;;;5067002;28;20032;-38
2021/03/25 03:53:07;;;;;;;45.90;31.38;;;9.10;92.00;;;;;;5067741;28;20508;-37
2021/03/25 03:55:34;;;;;;;52.90;34.80;;;9.10;92.00;;;;;;5067124;28;20115;-37
2021/03/25 03:58:09;;;;;;;53.55;34.58;;;9.10;92.00;;;;;;5066724;28;20020;-39
2021/03/25 04:00:56;;;;;;;55.00;35.13;;;9.10;92.10;;;;;;5067166;28;20148;-37
2021/03/25 04:03:47;;;;;;;53.10;34.63;;;9.10;92.10;;;;;;5067629;28;20059;-39
2021/03/25 04:06:24;;;;;;;56.08;34.28;;;9.10;92.10;;;;;;5058811;28;20017;-36
2021/03/25 04:09:14;;;;;;;57.63;35.80;;;9.10;92.10;;;;;;5067210;28;20024;-36
2021/03/25 04:12:01;;;;;;;55.47;35.80;;;9.10;92.10;;;;;;5066687;28;20045;-36
2021/03/25 04:14:33;;;;;;;53.53;34.15;;;9.10;92.10;;;;;;5067197;28;20109;-35
2021/03/25 04:17:02;;;;;;;56.20;36.15;;;9.10;92.00;;;;;;5067334;28;20028;-37
2021/03/25 04:19:52;;;;;;;56.53;35.58;;;9.10;92.10;;;;;;5066260;28;20052;-37
2021/03/25 04:22:23;;;;;;;53.58;33.55;;;9.10;92.10;;;;;;5067382;28;20275;-33
2021/03/25 04:25:07;;;;;;;55.25;36.53;;;9.10;92.10;;;;;;5066620;28;20375;-36
2021/03/25 04:27:41;;;;;;;53.92;34.08;;;9.10;92.10;;;;;;5067061;28;20029;-36
2021/03/25 04:30:14;;;;;;;53.92;34.20;;;9.10;92.10;;;;;;5066831;28;20086;-36
2021/03/25 04:32:41;;;;;;;48.20;33.28;;;9.10;92.20;;;;;;5066603;28;20191;-36
2021/03/25 04:35:07;;;;;;;56.75;34.17;;;9.10;92.20;;;;;;5066666;28;20471;-38
2021/03/25 04:37:33;;;;;;;56.40;35.03;;;9.10;92.20;;;;;;5065758;28;20028;-36
2021/03/25 04:40:01;;;;;;;51.42;34.10;;;9.10;92.20;;;;;;5066299;28;20021;-36
2021/03/25 04:42:28;;;;;;;54.28;34.45;;;9.10;92.20;;;;;;5066762;28;20029;-37
2021/03/25 04:45:04;;;;;;;55.70;35.25;;;9.10;92.20;;;;;;5066669;28;20020;-38
2021/03/25 04:47:35;;;;;;;52.30;34.83;;;9.10;92.30;;;;;;5056699;28;20020;-39
2021/03/25 04:50:20;;;;;;;55.30;35.20;;;9.10;92.30;;;;;;5066492;28;20094;-37
2021/03/25 04:52:47;;;;;;;54.55;35.38;;;9.10;92.40;;;;;;5057337;28;20483;-38
2021/03/25 04:55:19;;;;;;;59.63;35.38;;;9.10;92.40;;;;;;5066048;28;20016;-38
2021/03/25 04:57:57;;;;;;;60.67;35.85;;;9.00;92.40;;;;;;5056394;28;20127;-37
2021/03/25 05:00:32;;;;;;;52.03;35.03;;;9.10;92.40;;;;;;5065963;28;20055;-39
2021/03/25 05:03:01;;;;;;;58.60;35.75;;;9.00;92.40;;;;;;5055965;28;20032;-39
2021/03/25 05:05:29;;;;;;;55.28;36.05;;;9.10;92.40;;;;;;5066141;28;20422;-39
2021/03/25 05:08:04;;;;;;;53.45;36.05;;;9.10;92.50;;;;;;5064061;28;20072;-37
2021/03/25 05:10:44;;;;;;;57.05;36.25;;;9.00;92.40;;;;;;5065974;28;21234;-38
2021/03/25 05:13:34;;;;;;;56.50;34.50;;;9.00;92.50;;;;;;5066365;28;20101;-39
2021/03/25 05:16:24;;;;;;;55.95;34.45;;;8.90;92.50;;;;;;5065788;28;20035;-37
2021/03/25 05:19:11;;;;;;;55.30;33.83;;;8.80;92.50;;;;;;5065976;28;20389;-39
2021/03/25 05:22:01;;;;;;;55.22;33.38;;;8.80;92.60;;;;;;5065792;28;20033;-38
2021/03/25 05:24:45;;;;;;;52.75;33.17;;;8.70;92.70;;;;;;5065703;28;20486;-34
2021/03/25 05:27:23;;;;;;;51.75;33.70;;;8.60;92.80;;;;;;5066167;28;20024;-37
2021/03/25 05:29:52;;;;;;;54.00;34.10;;;8.60;92.80;;;;;;5065443;28;20070;-39
2021/03/25 05:32:24;;;;;;;55.70;33.63;;;8.50;92.90;;;;;;5065746;28;20131;-40
2021/03/25 05:34:53;;;;;;;50.00;33.50;;;8.50;92.90;;;;;;5065885;28;20032;-37
2021/03/25 05:37:20;;;;;;;55.65;33.95;;;8.40;93.00;;;;;;5065409;28;20101;-39
2021/03/25 05:39:45;;;;;;;53.63;32.92;;;8.40;93.00;;;;;;5066003;28;20119;-39
2021/03/25 05:42:28;;;;;;;54.25;34.13;;;8.40;93.10;;;;;;5065436;28;20610;-36
2021/03/25 05:45:27;;;;;;;51.50;33.72;;;8.30;93.20;;;;;;5065567;28;20412;-38
2021/03/25 05:48:14;;;;;;;54.33;34.00;;;8.30;93.20;;;;;;5065423;28;20017;-39
2021/03/25 05:50:57;;;;;;;54.17;34.88;;;8.20;93.30;;;;;;5065188;28;20048;-37
2021/03/25 05:53:54;;;;;;;55.17;33.33;;;8.10;93.30;;;;;;5065475;28;20356;-37
2021/03/25 05:56:41;;;;;;;52.13;33.38;;;8.00;93.40;;;;;;5045486;28;20565;-38
2021/03/25 05:59:17;;;;;;;58.13;34.60;;;8.00;93.40;;;;;;5064950;28;20044;-37
2021/03/25 06:01:50;;;;;;;54.03;34.53;;;7.90;93.50;;;;;;5065235;28;20028;-36
2021/03/25 06:04:27;;;;;;;57.70;36.20;;;7.90;93.60;;;;;;5065003;28;20021;-38
2021/03/25 06:07:16;;;;;;;54.35;35.60;;;7.80;93.60;;;;;;5065295;28;20025;-36
2021/03/25 06:10:10;;;;;;;59.42;37.50;;;7.80;93.70;;;;;;5061690;28;20028;-35
2021/03/25 06:13:13;;;;;;;56.47;36.65;;;7.80;93.80;;;;;;5064640;28;20029;-37
2021/03/25 06:15:51;;;;;;;56.92;34.97;;;7.80;93.80;;;;;;5057229;28;20561;-37
2021/03/25 06:18:54;;;;;;;60.22;36.28;;;7.70;93.80;;;;;;5064519;28;20109;-39
2021/03/25 06:21:58;;;;;;;54.75;33.92;;;7.60;93.80;;;;;;5065537;28;20110;-36
2021/03/25 06:24:54;;;;;;;54.28;32.53;;;7.60;93.90;;;;;;5063891;28;20036;-38
2021/03/25 06:27:31;;;;;;;50.00;32.42;;;7.60;94.00;;;;;;5045394;28;20120;-39
2021/03/25 06:30:10;;;;;;;57.88;34.70;;;7.60;94.00;;;;;;5063679;28;20025;-36
2021/03/25 06:33:20;;;;;;;56.70;33.47;;;7.60;94.10;;;;;;5064027;28;20387;-33
2021/03/25 06:35:50;;;;;;;53.60;32.38;;;7.80;94.10;;;;;;5050078;28;20040;-39
2021/03/25 06:38:20;;;;;;;56.75;33.90;;;7.90;94.00;;;;;;5065015;28;20035;-37
2021/03/25 06:41:13;;;;;;;54.67;35.50;;;8.00;93.90;;;;;;5064076;28;20064;-38
2021/03/25 06:44:01;;;;;;;53.78;33.28;;;8.10;93.90;;;;;;5064208;28;20094;-35
2021/03/25 06:46:37;;;;;;;58.05;35.03;;;8.20;93.80;;;;;;5054543;28;20134;-38
2021/03/25 06:49:31;;;;;;;58.28;37.78;;;8.30;93.70;;;;;;5064630;28;20035;-40
2021/03/25 06:52:14;;;;;;;58.47;35.15;;;8.40;93.60;;;;;;5059783;28;20052;-39
2021/03/25 06:54:39;;;;;;;56.88;35.72;;;8.50;93.50;;;;;;5056335;28;20372;-40
2021/03/25 06:57:05;;;;;;;56.67;35.30;;;8.50;93.40;;;;;;5061728;28;20031;-36
2021/03/25 06:59:35;;;;;;;52.33;34.25;;;8.40;93.40;;;;;;5061374;28;20071;-40
2021/03/25 07:02:24;;;;;;;58.10;35.97;;;8.40;93.40;;;;;;5061823;28;20025;-38
2021/03/25 07:04:52;;;;;;;55.35;34.47;;;8.30;93.60;;;;;;5062891;28;20049;-37
2021/03/25 07:07:23;;;;;;;54.17;34.08;;;8.20;93.70;;;;;;5063606;28;20040;-39
2021/03/25 07:09:50;;;;;;;60.80;36.80;;;8.10;93.80;;;;;;5062941;28;20021;-38
2021/03/25 07:12:38;;;;;;;61.92;39.58;;;8.00;93.90;;;;;;5063438;28;20040;-39
2021/03/25 07:15:08;;;;;;;64.07;39.17;;;8.00;94.00;;;;;;5062159;28;20066;-34
2021/03/25 07:17:39;;;;;;;64.00;39.72;;;8.00;94.10;;;;;;5063419;28;20032;-38
2021/03/25 07:20:26;;;;;;;61.63;37.92;;;7.90;94.10;;;;;;5062537;28;20132;-35
2021/03/25 07:23:09;;;;;;;57.80;37.33;;;7.90;94.10;;;;;;5061065;28;20097;-34
2021/03/25 07:25:37;;;;;;;;;;;7.90;94.20;;;;;;5063871;28;20448;-37
2021/03/25 07:28:10;;;;;;;54.17;33.17;;;8.00;94.20;;;;;;5063857;28;20165;-43
2021/03/25 07:30:47;;;;;;;68.32;40.72;;;8.00;94.20;;;;;;5063372;28;20021;-39
2021/03/25 07:33:19;;;;;;;72.90;44.88;;;8.00;94.40;;;;;;5063819;28;20043;-40
2021/03/25 07:35:50;;;;;;;68.67;43.97;;;8.00;94.50;;;;;;5063021;28;20107;-39
2021/03/25 07:38:23;;;;;;;79.05;48.42;;;8.10;94.40;;;;;;5064294;28;20343;-36
2021/03/25 07:41:23;;;;;;;75.45;46.33;;;8.20;94.70;;;;;;5063269;28;20051;-38
2021/03/25 07:43:58;;;;;;;74.55;44.72;;;8.20;94.60;;;;;;5039534;28;20040;-38
2021/03/25 07:46:26;;;;;;;69.28;42.20;;;8.30;94.60;;;;;;5063606;28;20032;-38
2021/03/25 07:48:59;;;;;;;63.67;39.58;;;8.40;94.50;;;;;;5063144;28;20028;-40
2021/03/25 07:51:25;;;;;;;67.10;42.05;;;8.40;94.50;;;;;;5062850;28;20451;-35
2021/03/25 07:54:34;;;;;;;69.40;42.67;;;8.50;94.50;;;;;;5063617;28;20120;-35
2021/03/25 07:57:10;;;;;;;69.88;44.25;;;8.60;94.50;;;;;;5020187;28;20029;-39
2021/03/25 07:59:40;;;;;;;77.32;47.60;;;8.80;94.80;;;;;;5019924;28;20053;-35
2021/03/25 08:02:40;;;;;;;77.57;48.38;;;8.90;94.70;;;;;;5044910;28;20056;-39
2021/03/25 08:05:28;;;;;;;78.22;48.95;;;9.10;94.90;;;;;;5039645;28;20051;-37
2021/03/25 08:08:01;;;;;;;66.88;43.03;;;9.30;94.70;;;;;;5063329;28;20035;-37
2021/03/25 08:10:43;;;;;;;76.30;45.88;;;9.40;94.60;;;;;;5043087;28;20033;-36
2021/03/25 08:13:18;;;;;;;68.80;43.72;;;9.60;94.40;;;;;;5061530;28;20135;-38
2021/03/25 08:15:47;;;;;;;71.25;42.00;;;9.70;94.20;;;;;;5047433;28;20032;-34
2021/03/25 08:18:49;;;;;;;64.70;42.33;;;9.80;94.10;;;;;;5062890;28;20028;-35
2021/03/25 08:21:40;;;;;;;68.00;44.43;;;9.80;94.00;;;;;;5065461;28;20492;-38
2021/03/25 08:24:24;;;;;;;67.47;42.63;;;9.80;94.10;;;;;;5066268;28;20270;-40
2021/03/25 08:27:08;;;;;;;72.45;46.20;;;9.80;94.10;;;;;;5064192;28;20251;-38
2021/03/25 08:29:47;;;;;;;69.72;45.45;;;9.70;94.30;;;;;;5064974;28;20120;-39
2021/03/25 08:32:20;;;;;;;59.97;39.25;;;9.70;94.30;;;;;;5063920;28;20707;-33
2021/03/25 08:35:08;;;;;;;78.85;47.40;;;9.70;94.30;;;;;;5066756;28;20028;-37
2021/03/25 08:38:08;;;;;;;67.82;43.00;;;9.70;94.50;;;;;;5065846;28;20032;-35
2021/03/25 08:40:52;;;;;;;63.25;38.13;;;9.80;94.40;;;;;;5066823;28;20050;-39
2021/03/25 08:43:41;;;;;;;65.93;41.83;;;9.90;94.30;;;;;;5066698;28;20020;-38
2021/03/25 08:46:32;;;;;;;71.57;44.33;;;10.00;94.30;;;;;;5044089;28;20040;-38
2021/03/25 08:49:04;;;;;;;71.82;45.85;;;10.00;94.70;;;;;;5066278;28;20036;-37
2021/03/25 08:51:39;;;;;;;62.60;41.42;;;10.10;94.60;;;;;;5066918;28;20048;-38
2021/03/25 08:54:28;;;;;;;63.53;40.20;;;10.20;94.50;;;;;;5065882;28;20388;-35
2021/03/25 08:57:14;;;;;;;57.90;37.80;;;10.30;94.40;;;;;;5066209;28;20032;-36
2021/03/25 08:59:53;;;;;;;63.10;39.38;;;10.40;94.40;;;;;;5065467;28;20126;-38
2021/03/25 09:02:43;;;;;;;56.38;38.40;;;10.50;94.30;;;;;;5056626;28;20153;-39
2021/03/25 09:05:22;;;;;;;64.53;41.17;;;10.60;94.30;;;;;;5065099;28;20678;-38
2021/03/25 09:07:48;;;;;;;69.97;44.45;;;10.70;94.20;;;;;;5063554;28;20021;-39
2021/03/25 09:10:34;;;;;;;67.70;44.20;;;10.80;94.50;;;;;;5065682;28;20013;-38
2021/03/25 09:13:00;;;;;;;64.70;42.88;;;10.90;94.30;;;;;;5057055;28;20037;-38
2021/03/25 09:15:26;;;;;;;62.95;41.78;;;11.00;94.10;;;;;;5064601;28;20031;-37
2021/03/25 09:17:55;;;;;;;59.13;38.78;;;11.10;94.00;;;;;;5062623;28;20249;-34
2021/03/25 09:20:34;;;;;;;58.20;39.85;;;11.20;93.90;;;;;;5065297;28;20029;-39
2021/03/25 09:23:20;;;;;;;63.30;39.20;;;11.40;93.70;;;;;;5064737;28;20115;-38
2021/03/25 09:25:46;;;;;;;53.13;35.40;;;11.60;93.50;;;;;;5065106;28;20039;-40
2021/03/25 09:28:19;;;;;;;59.03;38.60;;;11.90;93.20;;;;;;5064862;28;20055;-40
2021/03/25 09:31:07;;;;;;;54.45;37.08;;;12.00;92.70;;;;;;5065223;28;20086;-40
2021/03/25 09:33:57;;;;;;;53.75;35.33;;;12.00;92.60;;;;;;5045806;28;20043;-37
2021/03/25 09:36:31;;;;;;;53.28;34.28;;;12.00;92.60;;;;;;5064688;28;20036;-37
2021/03/25 09:38:57;;;;;;;51.40;31.95;;;12.00;92.60;;;;;;5065739;28;20020;-38
2021/03/25 09:41:41;;;;;;;54.22;35.28;;;12.00;92.60;;;;;;5065352;28;20028;-37
2021/03/25 09:44:10;;;;;;;50.05;31.60;;;12.20;92.50;;;;;;5065245;28;20445;-38
2021/03/25 09:46:54;;;;;;;48.45;32.35;;;12.30;92.30;;;;;;5064837;28;20354;-38
2021/03/25 09:49:39;;;;;;;49.10;32.90;;;12.50;92.10;;;;;;5066028;28;20056;-38
2021/03/25 09:52:16;;;;;;;53.50;35.85;;;12.70;91.90;;;;;;5065364;28;20093;-37
2021/03/25 09:54:54;;;;;;;44.90;31.60;;;12.90;91.40;;;;;;5065338;28;20027;-35
2021/03/25 09:57:32;;;;;;;45.28;31.75;;;13.10;91.30;;;;;;5062233;28;20016;-36
2021/03/25 10:00:17;;;;;;;45.72;31.73;;;13.10;90.50;;;;;;5064889;28;20048;-38
2021/03/25 10:02:51;;;;;;;45.95;31.05;;;13.20;90.60;;;;;;5061523;28;20040;-37
2021/03/25 10:05:33;;;;;;;44.67;29.77;;;13.30;90.50;;;;;;5064970;28;20135;-38
2021/03/25 10:08:21;;;;;;;44.13;28.77;;;13.40;90.40;;;;;;5065068;28;20047;-38
2021/03/25 10:11:07;;;;;;;45.17;30.63;;;13.40;90.20;;;;;;5043920;28;20074;-39
2021/03/25 10:13:43;;;;;;;45.72;32.50;;;13.40;90.10;;;;;;5056163;28;20155;-39
2021/03/25 10:16:27;;;;;;;46.20;30.05;;;13.50;89.90;;;;;;5064856;28;20364;-36
2021/03/25 10:18:55;;;;;;;40.10;27.05;;;13.60;89.60;;;;;;5063554;28;20040;-41
2021/03/25 10:21:59;;;;;;;48.60;31.83;;;13.70;90.00;;;;;;5064924;28;20039;-38
2021/03/25 10:24:28;;;;;;;43.33;30.65;;;13.90;89.60;;;;;;5064473;28;20036;-42
2021/03/25 10:27:11;;;;;;;40.28;28.67;;;14.00;88.60;;;;;;5064497;28;20063;-37
2021/03/25 10:29:37;;;;;;;44.05;28.95;;;14.00;88.60;;;;;;5065072;28;20115;-38
2021/03/25 10:32:32;;;;;;;35.88;27.10;;;13.90;88.30;;;;;;5063688;28;20615;-37
2021/03/25 10:35:00;;;;;;;37.28;26.92;;;13.90;87.90;;;;;;5063842;28;20029;-38
2021/03/25 10:37:43;;;;;;;38.22;27.50;;;13.80;87.40;;;;;;5064696;28;20024;-38
2021/03/25 10:40:23;;;;;;;42.92;29.58;;;13.80;87.70;;;;;;5064871;28;20036;-36
2021/03/25 10:43:17;;;;;;;36.45;25.75;;;13.80;87.50;;;;;;5064397;28;20036;-40
2021/03/25 10:45:59;;;;;;;40.85;26.92;;;13.70;87.80;;;;;;5044144;28;20055;-36
2021/03/25 10:48:30;;;;;;;39.30;26.35;;;13.70;88.30;;;;;;5061271;28;20028;-39
2021/03/25 10:51:00;;;;;;;37.05;25.48;;;13.70;88.40;;;;;;5064495;28;20103;-38
2021/03/25 10:53:34;;;;;;;37.70;27.73;;;13.70;88.80;;;;;;5063407;28;20033;-38
2021/03/25 10:56:14;;;;;;;37.85;26.48;;;13.70;88.60;;;;;;5044250;28;20067;-36
2021/03/25 10:58:44;;;;;;;39.35;27.65;;;13.80;89.20;;;;;;5060524;28;20519;-36
2021/03/25 11:01:20;;;;;;;40.60;28.55;;;13.90;88.30;;;;;;5044047;28;20526;-39
2021/03/25 11:03:46;;;;;;;38.83;26.88;;;14.00;87.90;;;;;;5059806;28;20051;-40
2021/03/25 11:06:24;;;;;;;40.72;27.35;;;14.10;87.80;;;;;;5064161;28;20483;-38
2021/03/25 11:08:49;;;;;;;38.08;26.63;;;14.20;87.90;;;;;;5064235;28;20043;-35
2021/03/25 11:11:24;;;;;;;39.50;27.67;;;14.20;88.10;;;;;;5064362;28;20544;-40
2021/03/25 11:14:02;;;;;;;34.35;24.85;;;14.20;88.10;;;;;;5063591;28;20571;-38
2021/03/25 11:16:30;;;;;;;33.97;25.95;;;14.20;88.30;;;;;;5064139;28;20089;-37
2021/03/25 11:19:08;;;;;;;38.92;27.33;;;14.30;88.00;;;;;;5064005;28;20470;-36
2021/03/25 11:21:40;;;;;;;38.72;26.55;;;14.30;87.90;;;;;;5063954;28;20098;-37
2021/03/25 11:24:25;;;;;;;34.42;24.27;;;14.20;88.00;;;;;;5063918;28;20102;-39
2021/03/25 11:27:03;;;;;;;31.45;22.90;;;14.20;88.40;;;;;;5063551;28;20029;-36
2021/03/25 11:29:34;;;;;;;33.58;23.42;;;14.20;88.70;;;;;;5064103;28;20016;-40
2021/03/25 11:32:21;;;;;;;29.92;23.83;;;14.10;89.00;;;;;;5052671;28;20127;-36
2021/03/25 11:34:49;;;;;;;27.58;23.08;;;14.00;90.00;;;;;;5058957;28;20043;-39
2021/03/25 11:37:44;;;;;;;30.77;24.20;;;13.90;89.60;;;;;;5063337;28;20077;-37
2021/03/25 11:40:14;;;;;;;27.02;21.67;;;13.80;90.00;;;;;;5055668;28;20634;-39
2021/03/25 11:42:45;;;;;;;26.58;21.70;;;13.80;90.20;;;;;;5060790;28;20111;-37
2021/03/25 11:45:39;;;;;;;27.25;21.10;;;13.80;90.40;;;;;;5063713;28;20372;-34
2021/03/25 11:48:26;;;;;;;24.83;20.73;;;13.70;90.50;;;;;;5046515;28;20082;-38
2021/03/25 11:50:54;;;;;;;24.75;19.15;;;13.70;90.80;;;;;;5067520;28;20135;-33
2021/03/25 11:53:43;;;;;;;25.10;19.50;;;13.60;90.80;;;;;;5068190;28;20036;-38
2021/03/25 11:56:32;;;;;;;22.75;17.95;;;13.60;90.90;;;;;;5063629;28;20041;-35
2021/03/25 11:59:03;;;;;;;20.23;16.33;;;13.70;90.90;;;;;;5067417;28;20043;-32
2021/03/25 12:01:32;;;;;;;21.50;16.65;;;13.60;90.80;;;;;;5067294;28;20028;-38
2021/03/25 12:04:01;;;;;;;22.98;17.60;;;13.60;90.70;;;;;;5067282;28;20456;-33
2021/03/25 12:06:39;;;;;;;22.85;17.80;;;13.50;90.50;;;;;;5066532;28;20039;-37
2021/03/25 12:09:17;;;;;;;24.08;18.42;;;13.40;90.50;;;;;;5067522;28;20119;-37
2021/03/25 12:11:52;;;;;;;22.08;17.77;;;13.40;90.80;;;;;;5063172;28;20082;-36
2021/03/25 12:14:22;;;;;;;24.85;18.40;;;13.50;91.00;;;;;;5069635;28;20017;-38
2021/03/25 12:17:00;;;;;;;21.92;16.83;;;13.70;90.70;;;;;;5066016;28;20021;-39
2021/03/25 12:19:26;;;;;;;19.73;15.85;;;13.80;90.30;;;;;;5067626;28;20388;-35
2021/03/25 12:21:52;;;;;;;16.13;14.27;;;14.00;90.10;;;;;;5066470;28;20106;-36
2021/03/25 12:24:18;;;;;;;24.13;17.63;;;14.00;89.60;;;;;;5067053;28;20120;-37
2021/03/25 12:26:47;;;;;;;19.60;15.93;;;13.90;89.30;;;;;;5066743;28;20059;-36
2021/03/25 12:29:13;;;;;;;22.42;16.25;;;13.80;89.80;;;;;;5067076;28;20031;-37
2021/03/25 12:31:42;;;;;;;23.23;17.30;;;13.70;90.10;;;;;;5065737;28;20040;-38
2021/03/25 12:34:08;;;;;;;22.73;17.05;;;13.50;90.20;;;;;;5066739;28;20498;-39
2021/03/25 12:36:34;;;;;;;25.20;18.08;;;13.40;90.50;;;;;;5066637;28;20025;-37
2021/03/25 12:39:01;;;;;;;21.27;16.70;;;13.20;90.80;;;;;;5066114;28;20555;-39
2021/03/25 12:41:39;;;;;;;18.15;15.43;;;13.10;91.10;;;;;;5066611;28;20044;-35
2021/03/25 12:44:07;;;;;;;18.08;14.35;;;12.90;91.30;;;;;;5066321;28;20047;-39
2021/03/25 12:46:33;;;;;;;17.85;14.90;;;12.80;91.70;;;;;;5065849;28;20024;-37
2021/03/25 12:49:02;;;;;;;21.55;16.23;;;12.70;92.10;;;;;;5066900;28;20044;-36
2021/03/25 12:51:28;;;;;;;21.70;15.98;;;12.60;92.30;;;;;;5065765;28;20429;-37
2021/03/25 12:53:53;;;;;;;23.08;17.02;;;12.40;92.70;;;;;;5065947;28;20071;-38
2021/03/25 12:56:26;;;;;;;23.48;16.92;;;12.30;93.00;;;;;;5066727;28;20013;-39
2021/03/25 12:58:54;;;;;;;20.92;15.93;;;12.20;93.20;;;;;;5064971;28;20045;-36
2021/03/25 13:01:23;;;;;;;23.38;16.02;;;12.10;93.50;;;;;;5066708;28;20095;-41
2021/03/25 13:03:49;;;;;;;20.85;15.10;;;12.00;93.50;;;;;;5065952;28;20031;-35
2021/03/25 13:06:15;;;;;;;20.88;15.55;;;11.90;93.80;;;;;;5065219;28;20036;-38
2021/03/25 13:08:42;;;;;;;24.75;17.40;;;11.90;93.90;;;;;;5067510;28;20020;-38
2021/03/25 13:11:09;;;;;;;25.65;17.45;;;11.90;94.20;;;;;;5066394;28;20034;-37
2021/03/25 13:13:35;;;;;;;24.52;17.40;;;11.80;94.20;;;;;;5065296;28;20067;-37
2021/03/25 13:16:01;;;;;;;22.20;16.30;;;11.80;94.20;;;;;;5065422;28;20441;-38
2021/03/25 13:18:26;;;;;;;26.30;17.58;;;11.80;94.20;;;;;;5066112;28;20029;-36
2021/03/25 13:20:53;;;;;;;27.27;17.98;;;11.90;94.30;;;;;;5065773;28;20468;-33